Time;durP1;ratioP1;P1;durP2;ratioP2;P2;SDS_P1;SDS_P2;PMS_P1;PMS_P2;Temp;Humidity;BMP_temperature;BMP_pressure;BME280_temperature;BME280_humidity;BME280_pressure;Samples;Min_cycle;Max_cycle;Signal;HPM_P1;HPM_P2
2022/03/30 00:01:23;;;;;;;;;;;20.30;99.90;;;;;;5105707;28;20376;-56
2022/03/30 00:03:51;;;;;;;;;;;20.30;99.90;;;;;;5101433;28;19923;-59
2022/03/30 00:06:18;;;;;;;;;;;20.30;99.90;;;;;;5097708;28;19927;-59
2022/03/30 00:08:45;;;;;;;;;;;20.30;99.90;;;;;;5103049;28;19920;-56
2022/03/30 00:11:13;;;;;;;;;;;20.30;99.90;;;;;;5106032;28;19919;-57
2022/03/30 00:13:40;;;;;;;;;;;20.30;99.90;;;;;;5092579;28;19923;-58
2022/03/30 00:16:09;;;;;;;;;;;20.30;99.90;;;;;;5104789;28;19934;-58
2022/03/30 00:18:37;;;;;;;;;;;20.30;99.90;;;;;;5103028;28;19926;-57
2022/03/30 00:21:04;;;;;;;;;;;20.30;99.90;;;;;;5102717;28;20555;-57
2022/03/30 00:23:31;;;;;;;;;;;20.30;99.90;;;;;;5092415;28;20277;-58
2022/03/30 00:25:58;;;;;;;;;;;20.30;99.90;;;;;;5087443;28;19924;-59
2022/03/30 00:28:27;;;;;;;;;;;20.30;99.90;;;;;;5095366;28;20527;-58
2022/03/30 00:30:55;;;;;;;;;;;20.30;99.90;;;;;;5106788;28;19930;-58
2022/03/30 00:33:22;;;;;;;;;;;20.30;99.90;;;;;;5104528;28;20376;-58
2022/03/30 00:35:50;;;;;;;;;;;20.30;99.90;;;;;;5101274;28;19931;-60
2022/03/30 00:38:17;;;;;;;;;;;20.20;99.90;;;;;;5101547;28;19935;-60
2022/03/30 00:40:45;;;;;;;;;;;20.20;99.90;;;;;;5099113;28;19924;-59
2022/03/30 00:43:12;;;;;;;;;;;20.20;99.90;;;;;;5093356;28;19931;-55
2022/03/30 00:45:39;;;;;;;;;;;20.20;99.90;;;;;;5095665;28;19931;-58
2022/03/30 00:48:07;;;;;;;;;;;20.20;99.90;;;;;;5095162;28;19919;-58
2022/03/30 00:50:34;;;;;;;;;;;20.20;99.90;;;;;;5093306;28;19927;-59
2022/03/30 00:53:01;;;;;;;;;;;20.20;99.90;;;;;;5105391;28;20411;-55
2022/03/30 00:55:28;;;;;;;;;;;20.30;99.90;;;;;;5097106;28;19931;-57
2022/03/30 00:57:57;;;;;;;;;;;20.30;99.90;;;;;;5093995;28;21776;-57
2022/03/30 01:00:25;;;;;;;;;;;20.30;99.90;;;;;;5101882;28;20663;-57
2022/03/30 01:02:52;;;;;;;;;;;20.20;99.90;;;;;;5109100;28;19927;-57
2022/03/30 01:05:20;;;;;;;;;;;20.20;99.90;;;;;;5102173;28;19924;-57
2022/03/30 01:07:47;;;;;;;;;;;20.20;99.90;;;;;;5087634;28;19924;-58
2022/03/30 01:10:16;;;;;;;;;;;20.20;99.90;;;;;;5102775;28;20304;-57
2022/03/30 01:12:43;;;;;;;;;;;20.20;99.90;;;;;;5100997;28;19927;-59
2022/03/30 01:15:12;;;;;;;;;;;20.20;99.90;;;;;;5103630;28;19920;-58
2022/03/30 01:17:39;;;;;;;;;;;20.20;99.90;;;;;;5097075;28;19934;-57
2022/03/30 01:20:07;;;;;;;;;;;20.30;99.90;;;;;;5106297;28;19923;-58
2022/03/30 01:22:34;;;;;;;;;;;20.30;99.90;;;;;;5100340;28;20011;-59
2022/03/30 01:25:02;;;;;;;;;;;20.20;99.90;;;;;;5107593;28;19924;-58
2022/03/30 01:27:30;;;;;;;;;;;20.30;99.90;;;;;;5102681;28;19927;-58
2022/03/30 01:32:42;;;;;;;;;;;20.30;99.90;;;;;;5108759;28;19920;-58
2022/03/30 01:35:10;;;;;;;;;;;20.20;99.90;;;;;;5105875;28;20393;-59
2022/03/30 01:37:37;;;;;;;;;;;20.20;99.90;;;;;;5096516;28;19923;-58
2022/03/30 01:40:06;;;;;;;;;;;20.20;99.90;;;;;;5103220;28;19924;-61
2022/03/30 01:42:33;;;;;;;;;;;20.20;99.90;;;;;;5091185;28;19927;-58
2022/03/30 01:45:01;;;;;;;;;;;20.20;99.90;;;;;;5109341;28;19919;-54
2022/03/30 01:47:28;;;;;;;;;;;20.20;99.90;;;;;;5093439;28;20286;-55
2022/03/30 01:49:55;;;;;;;;;;;20.10;99.90;;;;;;5103396;28;19920;-57
2022/03/30 01:52:23;;;;;;;;;;;20.10;99.90;;;;;;5098769;28;19923;-57
2022/03/30 01:54:50;;;;;;;;;;;20.20;99.90;;;;;;5092694;28;19931;-57
2022/03/30 01:57:17;;;;;;;;;;;20.10;99.90;;;;;;5097185;28;19924;-58
2022/03/30 01:59:45;;;;;;;;;;;20.10;99.90;;;;;;5094210;28;19924;-58
2022/03/30 02:02:12;;;;;;;;;;;20.10;99.90;;;;;;5103800;28;20418;-57
2022/03/30 02:04:40;;;;;;;;;;;20.10;99.90;;;;;;5101102;28;19927;-56
2022/03/30 02:07:09;;;;;;;;;;;20.10;99.90;;;;;;5102530;28;19927;-54
2022/03/30 02:09:37;;;;;;;;;;;20.10;99.90;;;;;;5104241;28;19920;-57
2022/03/30 02:12:04;;;;;;;;;;;20.10;99.90;;;;;;5098578;28;19919;-59
2022/03/30 02:14:31;;;;;;;;;;;20.10;99.90;;;;;;5104691;28;19924;-53
2022/03/30 02:16:59;;;;;;;;;;;20.10;99.90;;;;;;5079766;28;19931;-59
2022/03/30 02:19:26;;;;;;;;;;;20.10;99.90;;;;;;5100291;28;19931;-54
2022/03/30 02:21:53;;;;;;;;;;;20.10;99.90;;;;;;5094463;28;20464;-58
2022/03/30 02:24:20;;;;;;;;;;;20.10;99.90;;;;;;5093335;28;20290;-56
2022/03/30 02:26:48;;;;;;;;;;;20.10;99.90;;;;;;5108305;28;19930;-55
2022/03/30 02:29:15;;;;;;;;;;;20.10;99.90;;;;;;5103058;28;20309;-56
2022/03/30 02:31:44;;;;;;;;;;;20.10;99.90;;;;;;5090683;28;19927;-58
2022/03/30 02:34:12;;;;;;;;;;;20.10;99.90;;;;;;5096289;28;19924;-56
2022/03/30 02:36:40;;;;;;;;;;;20.10;99.90;;;;;;5108206;28;19919;-58
2022/03/30 02:39:07;;;;;;;;;;;20.10;99.90;;;;;;5106834;28;20266;-57
2022/03/30 02:41:34;;;;;;;;;;;20.10;99.90;;;;;;5088702;28;20459;-60
2022/03/30 02:44:01;;;;;;;;;;;20.10;99.90;;;;;;5102689;28;19938;-57
2022/03/30 02:46:28;;;;;;;;;;;20.10;99.90;;;;;;5091813;28;19931;-59
2022/03/30 02:48:56;;;;;;;;;;;20.10;99.90;;;;;;5101050;28;19923;-57
2022/03/30 02:51:25;;;;;;;;;;;20.10;99.90;;;;;;5103946;28;19950;-57
2022/03/30 02:53:52;;;;;;;;;;;20.00;99.90;;;;;;5098656;28;19927;-56
2022/03/30 02:56:19;;;;;;;;;;;20.10;99.90;;;;;;5088370;28;19928;-57
2022/03/30 02:58:47;;;;;;;;;;;20.00;99.90;;;;;;5098478;28;19939;-54
2022/03/30 03:01:14;;;;;;;;;;;20.10;99.90;;;;;;5072031;28;19931;-55
2022/03/30 03:03:41;;;;;;;;;;;20.10;99.90;;;;;;5105320;28;19947;-54
2022/03/30 03:06:08;;;;;;;;;;;20.10;99.90;;;;;;5100007;28;19946;-54
2022/03/30 03:08:36;;;;;;;;;;;20.10;99.90;;;;;;5073530;28;19928;-57
2022/03/30 03:11:03;;;;;;;;;;;20.10;99.90;;;;;;5095349;28;20325;-57
2022/03/30 03:13:30;;;;;;;;;;;20.10;99.90;;;;;;5097288;28;19928;-58
2022/03/30 03:15:57;;;;;;;;;;;20.10;99.90;;;;;;5106306;28;19919;-59
2022/03/30 03:18:25;;;;;;;;;;;20.10;99.90;;;;;;5102283;28;20257;-56
2022/03/30 03:20:52;;;;;;;;;;;20.00;99.90;;;;;;5091038;28;19927;-60
2022/03/30 03:23:19;;;;;;;;;;;20.10;99.90;;;;;;5103631;28;19923;-57
2022/03/30 03:25:47;;;;;;;;;;;20.00;99.90;;;;;;5089262;28;19927;-56
2022/03/30 03:28:15;;;;;;;;;;;20.00;99.90;;;;;;5092851;28;19924;-59
2022/03/30 03:30:42;;;;;;;;;;;20.00;99.90;;;;;;5101964;28;19920;-60
2022/03/30 03:33:10;;;;;;;;;;;20.00;99.90;;;;;;5075632;28;19928;-56
2022/03/30 03:35:38;;;;;;;;;;;20.10;99.90;;;;;;5094589;28;19931;-55
2022/03/30 03:38:06;;;;;;;;;;;20.00;99.90;;;;;;5089528;28;20312;-57
2022/03/30 03:40:33;;;;;;;;;;;20.00;99.90;;;;;;5101571;28;19931;-56
2022/03/30 03:43:00;;;;;;;;;;;20.00;99.90;;;;;;5085101;28;19928;-56
2022/03/30 03:45:27;;;;;;;;;;;20.00;99.90;;;;;;5090893;28;19983;-56
2022/03/30 03:47:55;;;;;;;;;;;20.00;99.90;;;;;;5088437;28;19932;-58
2022/03/30 03:50:22;;;;;;;;;;;20.00;99.90;;;;;;5088402;28;19920;-57
2022/03/30 03:52:49;;;;;;;;;;;20.00;99.90;;;;;;5101213;28;19939;-57
2022/03/30 03:55:21;;;;;;;;;;;20.00;99.90;;;;;;5105707;28;19951;-57
2022/03/30 03:57:49;;;;;;;;;;;20.00;99.90;;;;;;5092495;28;19927;-58
2022/03/30 04:00:17;;;;;;;;;;;20.00;99.90;;;;;;5089949;28;19920;-57
2022/03/30 04:02:44;;;;;;;;;;;20.00;99.90;;;;;;5096936;28;19924;-57
2022/03/30 04:05:13;;;;;;;;;;;19.90;99.90;;;;;;5090107;28;19931;-60
2022/03/30 04:07:41;;;;;;;;;;;20.00;99.90;;;;;;5105147;28;19935;-58
2022/03/30 04:10:11;;;;;;;;;;;20.00;99.90;;;;;;5094167;28;19946;-58
2022/03/30 04:12:39;;;;;;;;;;;20.00;99.90;;;;;;5101604;28;19923;-61
2022/03/30 04:15:07;;;;;;;;;;;20.00;99.90;;;;;;5086825;28;19920;-60
2022/03/30 04:17:35;;;;;;;;;;;20.00;99.90;;;;;;5104264;28;19923;-59
2022/03/30 04:20:02;;;;;;;;;;;20.00;99.90;;;;;;5087680;28;19924;-58
2022/03/30 04:22:29;;;;;;;;;;;20.00;99.90;;;;;;5105727;28;19931;-57
2022/03/30 04:24:56;;;;;;;;;;;20.00;99.90;;;;;;5100921;28;19923;-59
2022/03/30 04:27:24;;;;;;;;;;;20.00;99.90;;;;;;5084874;28;19943;-63
2022/03/30 04:29:51;;;;;;;;;;;20.00;99.90;;;;;;5109574;28;19923;-58
2022/03/30 04:32:18;;;;;;;;;;;20.00;99.90;;;;;;5107794;28;19920;-59
2022/03/30 04:34:45;;;;;;;;;;;20.10;99.90;;;;;;5103623;28;19938;-58
2022/03/30 04:37:17;;;;;;;;;;;20.00;99.90;;;;;;5097521;28;19927;-59
2022/03/30 04:39:44;;;;;;;;;;;20.10;99.90;;;;;;5083244;28;19923;-60
2022/03/30 04:42:13;;;;;;;;;;;20.00;99.90;;;;;;5106132;28;19923;-60
2022/03/30 04:44:41;;;;;;;;;;;20.00;99.90;;;;;;5108832;28;19935;-55
2022/03/30 04:47:08;;;;;;;;;;;20.00;99.90;;;;;;5103572;28;19931;-54
2022/03/30 04:49:35;;;;;;;;;;;19.40;97.60;;;;;;5107723;28;19930;-53
2022/03/30 04:52:03;;;;;;;;;;;18.80;97.00;;;;;;5101207;28;19923;-56
2022/03/30 04:54:30;;;;;;;;;;;18.80;99.90;;;;;;5103173;28;19924;-54
2022/03/30 04:56:57;;;;;;;;;;;19.00;99.90;;;;;;5106959;28;19927;-54
2022/03/30 04:59:24;;;;;;;;;;;19.30;99.90;;;;;;5098695;28;19935;-54
2022/03/30 05:01:51;;;;;;;;;;;19.40;99.90;;;;;;5104021;28;19923;-55
2022/03/30 05:04:18;;;;;;;;;;;19.60;99.90;;;;;;5094823;28;19920;-54
2022/03/30 05:06:46;;;;;;;;;;;19.70;99.90;;;;;;5101812;28;20006;-54
2022/03/30 05:09:13;;;;;;;;;;;19.80;99.90;;;;;;5104498;28;20308;-52
2022/03/30 05:11:40;;;;;;;;;;;19.90;99.90;;;;;;5085293;28;20400;-53
2022/03/30 05:14:07;;;;;;;;;;;19.90;99.90;;;;;;5102946;28;19931;-52
2022/03/30 05:16:35;;;;;;;;;;;20.00;99.90;;;;;;5103549;28;19931;-54
2022/03/30 05:19:02;;;;;;;;;;;20.10;99.90;;;;;;5108558;28;19924;-53
2022/03/30 05:21:30;;;;;;;;;;;20.10;99.90;;;;;;5104155;28;20380;-55
2022/03/30 05:23:57;;;;;;;;;;;20.10;99.90;;;;;;5107776;28;19931;-55
2022/03/30 05:26:24;;;;;;;;;;;20.10;99.90;;;;;;5107566;28;19920;-57
2022/03/30 05:28:51;;;;;;;;;;;20.20;99.90;;;;;;5087652;28;20392;-54
2022/03/30 05:31:18;;;;;;;;;;;20.20;99.90;;;;;;5101351;28;19927;-52
2022/03/30 05:33:46;;;;;;;;;;;20.20;99.90;;;;;;5105338;28;19943;-56
2022/03/30 05:36:13;;;;;;;;;;;20.30;99.90;;;;;;5095419;28;20277;-57
2022/03/30 05:38:40;;;;;;;;;;;20.20;99.90;;;;;;5093172;28;19924;-54
2022/03/30 05:41:07;;;;;;;;;;;20.20;99.90;;;;;;5100722;28;19924;-54
2022/03/30 05:43:38;;;;;;;;;;;20.30;99.90;;;;;;5098636;28;20125;-64
2022/03/30 05:46:06;;;;;;;;;;;20.30;99.90;;;;;;5086573;28;20573;-59
2022/03/30 05:48:33;;;;;;;;;;;20.30;99.90;;;;;;5079079;28;19923;-61
2022/03/30 05:51:01;;;;;;;;;;;20.30;99.90;;;;;;5098546;28;19924;-61
2022/03/30 05:53:28;;;;;;;;;;;20.30;99.90;;;;;;5096521;28;19923;-60
2022/03/30 05:55:55;;;;;;;;;;;20.30;99.90;;;;;;5102716;28;20779;-61
2022/03/30 05:58:23;;;;;;;;;;;20.30;99.90;;;;;;5105441;28;19927;-60
2022/03/30 06:00:53;;;;;;;;;;;20.40;99.90;;;;;;5078250;28;19931;-62
2022/03/30 06:03:20;;;;;;;;;;;20.30;99.90;;;;;;5097197;28;19930;-61
2022/03/30 06:05:48;;;;;;;;;;;20.40;99.90;;;;;;5096181;28;20462;-59
2022/03/30 06:08:15;;;;;;;;;;;20.40;99.90;;;;;;5096710;28;19928;-60
2022/03/30 06:10:42;;;;;;;;;;;20.30;99.90;;;;;;5093647;28;19931;-58
2022/03/30 06:13:09;;;;;;;;;;;20.30;99.90;;;;;;5091883;28;19924;-59
2022/03/30 06:15:38;;;;;;;;;;;20.30;99.90;;;;;;5094101;28;19935;-60
2022/03/30 06:18:14;;;;;;;;;;;20.30;99.90;;;;;;5076621;28;19924;-61
2022/03/30 06:20:41;;;;;;;;;;;20.30;99.90;;;;;;5099217;28;19928;-63
2022/03/30 06:23:08;;;;;;;;;;;20.30;99.90;;;;;;5075977;28;19939;-62
2022/03/30 06:25:36;;;;;;;;;;;20.30;99.90;;;;;;5096910;28;19930;-59
2022/03/30 06:28:03;;;;;;;;;;;20.30;99.90;;;;;;5088113;28;19923;-63
2022/03/30 06:30:31;;;;;;;;;;;20.30;99.90;;;;;;5090112;28;19920;-64
2022/03/30 06:32:58;;;;;;;;;;;20.30;99.90;;;;;;5092754;28;19935;-59
2022/03/30 06:35:28;;;;;;;;;;;20.30;99.90;;;;;;5093101;28;19934;-61
2022/03/30 06:37:58;;;;;;;;;;;20.30;99.90;;;;;;5080179;28;19935;-64
2022/03/30 06:40:24;;;;;;;;;;;20.30;99.90;;;;;;5092591;28;19912;-63
2022/03/30 06:42:54;;;;;;;;;;;20.30;99.90;;;;;;5092746;28;20339;-66
2022/03/30 06:45:22;;;;;;;;;;;20.30;99.90;;;;;;5097356;28;19928;-65
2022/03/30 06:47:49;;;;;;;;;;;20.30;99.90;;;;;;5091726;28;20406;-64
2022/03/30 06:50:18;;;;;;;;;;;20.30;99.90;;;;;;5095061;28;19923;-66
2022/03/30 06:52:46;;;;;;;;;;;20.30;99.90;;;;;;5095368;28;19927;-65
2022/03/30 06:55:14;;;;;;;;;;;20.30;99.90;;;;;;5102280;28;19931;-65
2022/03/30 06:57:42;;;;;;;;;;;20.20;99.90;;;;;;5104088;28;19935;-65
2022/03/30 07:00:13;;;;;;;;;;;20.20;99.90;;;;;;5079287;28;19928;-66
2022/03/30 07:02:41;;;;;;;;;;;20.20;99.90;;;;;;5090790;28;19927;-68
2022/03/30 07:05:09;;;;;;;;;;;20.20;99.90;;;;;;5101159;28;19927;-64
2022/03/30 07:10:23;;;;;;;;;;;20.20;99.90;;;;;;5091449;28;19943;-65
2022/03/30 07:12:51;;;;;;;;;;;20.20;99.90;;;;;;5075289;28;20485;-66
2022/03/30 07:15:19;;;;;;;;;;;20.20;99.90;;;;;;5104865;28;19947;-66
2022/03/30 07:17:48;;;;;;;;;;;20.20;99.90;;;;;;5093003;28;19928;-65
2022/03/30 07:20:16;;;;;;;;;;;20.20;99.90;;;;;;5094891;28;20304;-63
2022/03/30 07:22:44;;;;;;;;;;;20.20;99.90;;;;;;5098227;28;19962;-66
2022/03/30 07:25:12;;;;;;;;;;;20.20;99.90;;;;;;5094963;28;19924;-61
2022/03/30 07:27:40;;;;;;;;;;;20.20;99.90;;;;;;5094396;28;19928;-64
2022/03/30 07:30:08;;;;;;;;;;;20.20;99.90;;;;;;5096722;28;19920;-64
2022/03/30 07:32:36;;;;;;;;;;;20.20;99.90;;;;;;5088998;28;19923;-63
2022/03/30 07:35:03;;;;;;;;;;;20.20;99.90;;;;;;5095212;28;20362;-67
2022/03/30 07:37:30;;;;;;;;;;;20.20;99.90;;;;;;5096884;28;19923;-64
2022/03/30 07:40:05;;;;;;;;;;;20.20;99.90;;;;;;5096834;28;19923;-64
2022/03/30 07:42:32;;;;;;;;;;;20.20;99.90;;;;;;5096307;28;19942;-66
2022/03/30 07:44:59;;;;;;;;;;;20.20;99.90;;;;;;5096657;28;19939;-65
2022/03/30 07:47:26;;;;;;;;;;;20.20;99.90;;;;;;5094857;28;19923;-64
2022/03/30 07:49:54;;;;;;;;;;;20.20;99.90;;;;;;5095216;28;19928;-66
2022/03/30 07:52:21;;;;;;;;;;;20.20;99.90;;;;;;5091301;28;20419;-61
2022/03/30 07:54:48;;;;;;;;;;;20.20;99.90;;;;;;5091543;28;19931;-65
2022/03/30 07:57:16;;;;;;;;;;;20.20;99.90;;;;;;5096450;28;19919;-66
2022/03/30 07:59:43;;;;;;;;;;;20.20;99.90;;;;;;5092788;28;19927;-65
2022/03/30 08:02:11;;;;;;;;;;;20.20;99.90;;;;;;5091222;28;19928;-63
2022/03/30 08:04:38;;;;;;;;;;;20.20;99.90;;;;;;5095433;28;20320;-65
2022/03/30 08:07:06;;;;;;;;;;;20.20;99.90;;;;;;5095302;28;19927;-62
2022/03/30 08:09:33;;;;;;;;;;;20.20;99.90;;;;;;5071088;28;20423;-63
2022/03/30 08:12:00;;;;;;;;;;;20.20;99.90;;;;;;5074015;28;19942;-62
2022/03/30 08:14:28;;;;;;;;;;;20.10;99.90;;;;;;5097438;28;19934;-62
2022/03/30 08:16:55;;;;;;;;;;;20.10;99.90;;;;;;5093112;28;19931;-61
2022/03/30 08:19:22;;;;;;;;;;;20.10;99.90;;;;;;5097616;28;19927;-61
2022/03/30 08:24:39;;;;;;;;;;;20.20;99.90;;;;;;5097554;28;20407;-64
2022/03/30 08:27:06;;;;;;;;;;;20.30;99.90;;;;;;5077488;28;19927;-64
2022/03/30 08:29:34;;;;;;;;;;;20.30;99.90;;;;;;5094414;28;19926;-63
2022/03/30 08:32:01;;;;;;;;;;;20.40;99.90;;;;;;5087459;28;20419;-64
2022/03/30 08:34:28;;;;;;;;;;;20.40;99.90;;;;;;5106194;28;19924;-64
2022/03/30 08:36:55;;;;;;;;;;;20.40;99.90;;;;;;5092185;28;20326;-62
2022/03/30 08:39:22;;;;;;;;;;;20.40;99.90;;;;;;5104556;28;19927;-61
2022/03/30 08:41:50;;;;;;;;;;;20.40;99.90;;;;;;5079948;28;19935;-63
2022/03/30 08:44:17;;;;;;;;;;;20.50;99.90;;;;;;5102838;28;19945;-63
2022/03/30 08:46:45;;;;;;;;;;;20.50;99.90;;;;;;5099251;28;19943;-62
2022/03/30 08:49:14;;;;;;;;;;;20.50;99.90;;;;;;5096288;28;19987;-64
2022/03/30 08:51:42;;;;;;;;;;;20.50;99.90;;;;;;5078462;28;19928;-62
2022/03/30 08:54:10;;;;;;;;;;;20.60;99.90;;;;;;5095389;28;19924;-62
2022/03/30 08:56:39;;;;;;;;;;;20.60;99.90;;;;;;5096972;28;19920;-63
2022/03/30 08:59:07;;;;;;;;;;;20.60;99.90;;;;;;5077570;28;19920;-63
2022/03/30 09:01:36;;;;;;;;;;;20.60;99.90;;;;;;5097351;28;20264;-64
2022/03/30 09:04:05;;;;;;;;;;;20.60;99.90;;;;;;5077191;28;19950;-64
2022/03/30 09:06:35;;;;;;;;;;;20.60;99.90;;;;;;5091883;28;19934;-64
2022/03/30 09:09:03;;;;;;;;;;;20.60;99.90;;;;;;5101960;28;19924;-63
2022/03/30 09:11:57;;;;;;;;;;;20.50;99.90;;;;;;5095069;28;20308;-64
2022/03/30 09:14:29;;;;;;;;;;;20.50;99.90;;;;;;5094432;28;19924;-64
2022/03/30 09:16:58;;;;;;;;;;;20.60;99.90;;;;;;5095764;28;19927;-65
2022/03/30 09:19:51;;;;;;;;;;;20.60;99.90;;;;;;5096857;28;19935;-63
2022/03/30 09:22:18;;;;;;;;;;;20.70;99.90;;;;;;5097135;28;19924;-65
2022/03/30 09:24:45;;;;;;;;;;;20.70;99.90;;;;;;5082902;28;20007;-66
2022/03/30 09:27:13;;;;;;;;;;;20.70;99.90;;;;;;5107347;28;19930;-66
2022/03/30 09:29:41;;;;;;;;;;;20.70;99.90;;;;;;5078067;28;19931;-66
2022/03/30 09:32:24;;;;;;;;;;;20.80;99.90;;;;;;5095572;28;19930;-65
2022/03/30 09:34:53;;;;;;;;;;;20.70;99.90;;;;;;5093397;28;19920;-65
2022/03/30 09:37:21;;;;;;;;;;;20.70;99.90;;;;;;5093461;28;19954;-66
2022/03/30 09:39:49;;;;;;;;;;;20.70;99.90;;;;;;5096170;28;19924;-64
2022/03/30 09:42:18;;;;;;;;;;;20.70;99.90;;;;;;5095258;28;19938;-65
2022/03/30 09:44:45;;;;;;;;;;;20.70;99.90;;;;;;5077622;28;20469;-66
2022/03/30 09:47:13;;;;;;;;;;;20.70;99.90;;;;;;5098238;28;19929;-65
2022/03/30 09:49:41;;;;;;;;;;;20.70;99.90;;;;;;5100165;28;19919;-67
2022/03/30 09:52:13;;;;;;;;;;;20.70;99.90;;;;;;5097421;28;19958;-66
2022/03/30 09:54:43;;;;;;;;;;;20.60;99.90;;;;;;5079556;28;20297;-66
2022/03/30 09:57:11;;;;;;;;;;;20.60;99.90;;;;;;5094740;28;19936;-65
2022/03/30 09:59:54;;;;;;;;;;;20.50;99.90;;;;;;5081189;28;20360;-64
2022/03/30 10:02:21;;;;;;;;;;;20.50;99.90;;;;;;5102439;28;20312;-66
2022/03/30 10:04:49;;;;;;;;;;;20.50;99.90;;;;;;5103980;28;19924;-66
2022/03/30 10:07:17;;;;;;;;;;;20.60;99.90;;;;;;5096157;28;19924;-65
2022/03/30 10:09:44;;;;;;;;;;;20.50;99.90;;;;;;5100746;28;19934;-66
2022/03/30 10:12:15;;;;;;;;;;;20.50;99.90;;;;;;5107897;28;19924;-66
2022/03/30 10:14:46;;;;;;;;;;;20.50;99.90;;;;;;5100166;28;19924;-67
2022/03/30 10:17:14;;;;;;;;;;;20.50;99.90;;;;;;5098216;28;19928;-66
2022/03/30 10:19:46;;;;;;;;;;;20.40;99.90;;;;;;5105783;28;20485;-66
2022/03/30 10:22:16;;;;;;;;;;;20.40;99.90;;;;;;5090456;28;19920;-65
2022/03/30 10:24:51;;;;;;;;;;;20.40;99.90;;;;;;5088247;28;19930;-65
2022/03/30 10:27:37;;;;;;;;;;;20.40;99.90;;;;;;5099293;28;19924;-65
2022/03/30 10:30:07;;;;;;;;;;;20.40;99.90;;;;;;5085472;28;19931;-66
2022/03/30 10:32:35;;;;;;;;;;;20.30;99.90;;;;;;5097291;28;20038;-65
2022/03/30 10:35:04;;;;;;;;;;;20.30;99.90;;;;;;5105285;28;19931;-66
2022/03/30 10:37:36;;;;;;;;;;;20.30;99.90;;;;;;5099314;28;19932;-67
2022/03/30 10:40:04;;;;;;;;;;;20.30;99.90;;;;;;5102993;28;19930;-68
2022/03/30 10:42:46;;;;;;;;;;;20.30;99.90;;;;;;5101060;28;19919;-68
2022/03/30 10:45:17;;;;;;;;;;;20.30;99.90;;;;;;5095349;28;19928;-66
2022/03/30 10:48:05;;;;;;;;;;;20.30;99.90;;;;;;5105819;28;20284;-66
2022/03/30 10:50:34;;;;;;;;;;;20.30;99.90;;;;;;5088503;28;20359;-66
2022/03/30 10:53:01;;;;;;;;;;;20.30;99.90;;;;;;5097544;28;19928;-68
2022/03/30 10:55:30;;;;;;;;;;;20.30;99.90;;;;;;5106672;28;20337;-65
2022/03/30 10:58:01;;;;;;;;;;;20.30;99.90;;;;;;5106518;28;19919;-67
2022/03/30 11:00:33;;;;;;;;;;;20.30;99.90;;;;;;5088097;28;19919;-66
2022/03/30 11:03:12;;;;;;;;;;;20.30;99.90;;;;;;5094279;28;19927;-66
2022/03/30 11:05:43;;;;;;;;;;;20.30;99.90;;;;;;5103171;28;19920;-66
2022/03/30 11:08:29;;;;;;;;;;;20.20;99.90;;;;;;5092221;28;20304;-66
2022/03/30 11:10:56;;;;;;;;;;;20.20;99.90;;;;;;5088744;28;19931;-65
2022/03/30 11:13:24;;;;;;;;;;;20.20;99.90;;;;;;5092933;28;19930;-67
2022/03/30 11:16:00;;;;;;;;;;;20.20;99.90;;;;;;5105721;28;19920;-66
2022/03/30 11:18:28;;;;;;;;;;;20.20;99.90;;;;;;5099810;28;19927;-66
2022/03/30 11:21:20;;;;;;;;;;;20.20;99.90;;;;;;5101461;28;19991;-66
2022/03/30 11:23:55;;;;;;;;;;;20.20;99.90;;;;;;5106268;28;19931;-67
2022/03/30 11:26:23;;;;;;;;;;;20.20;99.90;;;;;;5090377;28;19924;-67
2022/03/30 11:28:50;;;;;;;;;;;20.20;99.90;;;;;;5105722;28;19923;-66
2022/03/30 11:31:22;;;;;;;;;;;20.20;99.90;;;;;;5088278;28;19931;-65
2022/03/30 11:34:18;;;;;;;;;;;20.20;99.90;;;;;;5101960;28;19927;-68
2022/03/30 11:36:46;;;;;;;;;;;20.20;99.90;;;;;;5084117;28;19923;-67
2022/03/30 11:39:14;;;;;;;;;;;20.20;99.90;;;;;;5093515;28;19927;-65
2022/03/30 11:41:52;;;;;;;;;;;20.20;99.90;;;;;;5097873;28;20400;-67
2022/03/30 11:47:12;;;;;;;;;;;20.30;99.90;;;;;;5096780;28;19920;-60
2022/03/30 11:49:52;;;;;;;;;;;20.30;99.90;;;;;;5096991;28;20428;-63
2022/03/30 11:52:23;;;;;;;;;;;20.30;99.90;;;;;;5103524;28;20022;-63
2022/03/30 11:54:58;;;;;;;;;;;20.40;99.90;;;;;;5101531;28;19924;-65
2022/03/30 11:57:25;;;;;;;;;;;20.30;99.90;;;;;;5100758;28;20845;-63
2022/03/30 11:59:54;;;;;;;;;;;20.30;99.90;;;;;;5095255;28;19931;-64
2022/03/30 12:02:22;;;;;;;;;;;20.40;99.90;;;;;;5101856;28;19919;-62
2022/03/30 12:04:49;;;;;;;;;;;20.40;99.90;;;;;;5087683;28;20000;-62
2022/03/30 12:07:19;;;;;;;;;;;20.40;99.90;;;;;;5101257;28;20390;-61
2022/03/30 12:09:47;;;;;;;;;;;20.40;99.90;;;;;;5095712;28;19923;-61
2022/03/30 12:12:24;;;;;;;;;;;20.40;99.90;;;;;;5100341;28;19931;-61
2022/03/30 12:14:55;;;;;;;;;;;20.40;99.90;;;;;;5101560;28;19920;-58
2022/03/30 12:17:28;;;;;;;;;;;20.40;99.90;;;;;;5102632;28;19944;-63
2022/03/30 12:19:55;;;;;;;;;;;20.40;99.90;;;;;;5102448;28;19935;-58
2022/03/30 12:22:23;;;;;;;;;;;20.40;99.90;;;;;;5099845;28;19920;-62
2022/03/30 12:24:50;;;;;;;;;;;20.40;99.90;;;;;;5094413;28;19930;-59
2022/03/30 12:27:17;;;;;;;;;;;20.40;99.90;;;;;;5097675;28;19931;-59
2022/03/30 12:29:45;;;;;;;;;;;20.50;99.90;;;;;;5090122;28;20593;-59
2022/03/30 12:32:15;;;;;;;;;;;20.50;99.90;;;;;;5102601;28;19920;-59
2022/03/30 12:34:43;;;;;;;;;;;20.50;99.90;;;;;;5106616;28;20398;-60
2022/03/30 12:37:11;;;;;;;;;;;20.50;99.90;;;;;;5097065;28;19928;-61
2022/03/30 12:39:42;;;;;;;;;;;20.50;99.90;;;;;;5108086;28;20375;-62
2022/03/30 12:42:12;;;;;;;;;;;20.60;99.90;;;;;;5107741;28;19926;-62
2022/03/30 12:44:41;;;;;;;;;;;20.60;99.90;;;;;;5108627;28;19924;-65
2022/03/30 12:47:16;;;;;;;;;;;20.60;99.90;;;;;;5107082;28;20330;-62
2022/03/30 12:49:43;;;;;;;;;;;20.60;99.90;;;;;;5104180;28;19964;-63
2022/03/30 12:52:15;;;;;;;;;;;20.60;99.90;;;;;;5103302;28;19931;-64
2022/03/30 12:54:43;;;;;;;;;;;20.60;99.90;;;;;;5104498;28;19923;-64
2022/03/30 12:57:11;;;;;;;;;;;20.60;99.90;;;;;;5099164;28;20314;-64
2022/03/30 12:59:40;;;;;;;;;;;20.60;99.90;;;;;;5108049;28;19931;-63
2022/03/30 13:02:21;;;;;;;;;;;20.60;99.90;;;;;;5104890;28;19951;-63
2022/03/30 13:04:49;;;;;;;;;;;20.60;99.90;;;;;;5098895;28;20430;-62
2022/03/30 13:07:21;;;;;;;;;;;20.60;99.90;;;;;;5086965;28;20233;-61
2022/03/30 13:10:09;;;;;;;;;;;20.60;99.90;;;;;;5098630;28;19920;-59
2022/03/30 13:12:43;;;;;;;;;;;20.50;99.90;;;;;;5106312;28;20308;-59
2022/03/30 13:15:11;;;;;;;;;;;20.50;99.90;;;;;;5092953;28;19920;-61
2022/03/30 13:17:59;;;;;;;;;;;20.60;99.90;;;;;;5088837;28;19923;-60
2022/03/30 13:20:27;;;;;;;;;;;20.60;99.90;;;;;;5099995;28;19934;-61
2022/03/30 13:22:56;;;;;;;;;;;20.60;99.90;;;;;;5084695;28;19950;-60
2022/03/30 13:25:24;;;;;;;;;;;20.60;99.90;;;;;;5106728;28;20300;-58
2022/03/30 13:27:52;;;;;;;;;;;20.60;99.90;;;;;;5107711;28;20331;-61
2022/03/30 13:30:19;;;;;;;;;;;20.60;99.90;;;;;;5111388;28;19923;-59
2022/03/30 13:32:46;;;;;;;;;;;20.60;99.90;;;;;;5102937;28;19928;-58
2022/03/30 13:35:13;;;;;;;;;;;20.60;99.90;;;;;;5095645;28;20006;-58
2022/03/30 13:37:40;;;;;;;;;;;20.60;99.90;;;;;;5106709;28;20415;-58
2022/03/30 13:40:08;;;;;;;;;;;20.60;99.90;;;;;;5105699;28;20387;-58
2022/03/30 13:42:35;;;;;;;;;;;20.60;99.90;;;;;;5105255;28;20315;-58
2022/03/30 13:45:03;;;;;;;;;;;20.60;99.90;;;;;;5084717;28;19931;-59
2022/03/30 13:47:30;;;;;;;;;;;20.60;99.90;;;;;;5101298;28;19931;-60
2022/03/30 13:49:57;;;;;;;;;;;20.60;99.90;;;;;;5103161;28;19939;-61
2022/03/30 13:52:29;;;;;;;;;;;20.60;99.90;;;;;;5088078;28;19923;-63
2022/03/30 13:54:56;;;;;;;;;;;20.70;99.90;;;;;;5104078;28;19928;-63
2022/03/30 13:57:23;;;;;;;;;;;20.70;99.90;;;;;;5108108;28;19930;-62
2022/03/30 13:59:50;;;;;;;;;;;20.80;99.90;;;;;;5097299;28;20344;-60
2022/03/30 14:02:18;;;;;;;;;;;20.80;99.90;;;;;;5087569;28;19939;-63
2022/03/30 14:04:46;;;;;;;;;;;20.80;99.90;;;;;;5105699;28;19954;-63
2022/03/30 14:07:14;;;;;;;;;;;20.90;99.90;;;;;;5100575;28;19940;-61
2022/03/30 14:09:41;;;;;;;;;;;20.90;99.90;;;;;;5102488;28;20247;-64
2022/03/30 14:12:09;;;;;;;;;;;20.90;99.90;;;;;;5101080;28;19931;-61
2022/03/30 14:14:37;;;;;;;;;;;20.90;99.90;;;;;;5101489;28;19954;-64
2022/03/30 14:17:04;;;;;;;;;;;20.90;99.90;;;;;;5095892;28;19931;-56
2022/03/30 14:19:31;;;;;;;;;;;20.90;99.90;;;;;;5106986;28;20416;-60
2022/03/30 14:21:59;;;;;;;;;;;20.90;99.90;;;;;;5105838;28;19927;-62
2022/03/30 14:24:26;;;;;;;;;;;20.90;99.90;;;;;;5099667;28;19928;-62
2022/03/30 14:26:53;;;;;;;;;;;20.90;99.90;;;;;;5105811;28;20384;-62
2022/03/30 14:29:21;;;;;;;;;;;20.90;99.90;;;;;;5106114;28;19923;-60
2022/03/30 14:31:49;;;;;;;;;;;20.90;99.90;;;;;;5104945;28;19928;-63
2022/03/30 14:34:16;;;;;;;;;;;21.00;99.90;;;;;;5069182;28;19927;-61
2022/03/30 14:36:44;;;;;;;;;;;21.00;99.90;;;;;;5096493;28;20483;-63